Mountville, Georgia
Current Conditions -  °F | °C
As of 5:55 PM on Saturday 25 Oct 2014 (Local Time) from KLGC Reporting Station
Clear Clear  
Wind Chill: 78°   Ceiling: Unl
Heat Index: 79°   Visibility: 10mi
Dew Point: 52°   Wind: 5mph
Humidity: 40%   Direction: 330°NNW
Pressure: 30.02"   Gusts: NA
Location:  33.0399°N, 84.8806°W
Report Text: KLGC 252155Z AUTO 33004KT 10SM CLR 26/11 A3002 RMK AO2 T02570110
Loading
Personal Weather Stations






























Interactive Weather Map
Tropical Storm Tracking
New forecast layout! Learn more

10-Day Weather Forecast

Advertisements
Track Severe Weather on mobile